Other Surface Observations
Issued by NWS Great Falls, MT

Home | Current Version | Previous Version | Text Only | Print | Product List | Glossary On
Versions: 1 2 3 4 5 6 7 8 9 10 11 12 13 14 15 16 17 18 19 20 21 22 23 24 25 26 27 28 29 30 31 32 33 34 35 36 37 38 39 40 41 42 43 44 45 46 47 48 49 50
000
SXUS55 KTFX 221521
OSOTFX

AREA AWOS OBSERVATIONS
NATIONAL WEATHER SERVICE GREAT FALLS MT
0821 AM MST Wed Nov 22 2017

METAR KCII 221520Z AUTO 25011KT 10SM 14/04 A2999 RMK A01
METAR K6S0 221520Z AUTO 26024G31KT 10SM CLR 12/03 A3013 RMK A01
METAR K6S8 221515Z AUTO 24010KT 10SM 08/02 A3010 RMK A01



USA.gov is the U.S. government's official web portal to all federal, state and local government web resources and services.